Station Historical Data
Daily Summary for January 20, 2018 Units:  Both    English   Metric
« Previous Day
Next Day »
Daily Weekly Monthly Yearly Custom
  High: Low: Average:
Temperature: TemperatureF °F /  -17.8 °C 32.2 °F /  0.1 °C 36 °F /  2.2 °C
Dew Point: DewpointF °F /  -17.8 °C 23.4 °F /  -4.8 °C 27.1 °F /  -2.7 °C
Humidity: Humidity% 55% 70%
Wind Speed: WindSpeedMPHmph /  0km/h - 9.9mph /  15.9km/h
Wind Gust: WindSpeedGustMPHmph /  0km/h - -
Wind- - WSW
Pressure: PressureIn in /  0 hPa 29.74 in /  1007 hPa -
Precipitation: 0.00 in /  0 mm    
Historical Graphs
 
 
Tabular Data for January 20, 2018
Time Temperature Dew Point Pressure Wind Wind Speed Wind Gust Humidity Rainfall Rate (Hourly)
TemperatureF °F /  -17.8 °C DewpointF °F /  -17.8 °C PressureInin /  0hPa Calm     Humidity% HourlyPrecipInin /  0mm
00:04 39.0 °F /  3.9 °C 24.6 °F /  -4.1 °C 29.76in /  1007.7hPa SW 11.0mph /  17.7km/h 20.0mph /  32.2km/h 56% 0.01in /  0.25mm
00:09 39.1 °F /  3.9 °C 24.7 °F /  -4.1 °C 29.76in /  1007.7hPa WSW 8.0mph /  12.9km/h 23.0mph /  37km/h 56% 0.01in /  0.25mm
00:14 39.0 °F /  3.9 °C 24.6 °F /  -4.1 °C 29.75in /  1007.3hPa SW 11.0mph /  17.7km/h 23.0mph /  37km/h 56% 0.00in /  0mm
00:19 39.0 °F /  3.9 °C 24.2 °F /  -4.3 °C 29.75in /  1007.3hPa SSW 13.0mph /  20.9km/h 22.0mph /  35.4km/h 55% 0.00in /  0mm
00:24 39.1 °F /  3.9 °C 24.3 °F /  -4.3 °C 29.75in /  1007.3hPa WSW 15.0mph /  24.1km/h 20.0mph /  32.2km/h 55% 0.00in /  0mm
00:29 39.2 °F /  4 °C 24.4 °F /  -4.2 °C 29.74in /  1007hPa SW 7.0mph /  11.3km/h 25.0mph /  40.2km/h 55% 0.00in /  0mm
00:34 39.0 °F /  3.9 °C 24.2 °F /  -4.3 °C 29.74in /  1007hPa SW 9.0mph /  14.5km/h 20.0mph /  32.2km/h 55% 0.00in /  0mm
00:39 39.0 °F /  3.9 °C 24.2 °F /  -4.3 °C 29.75in /  1007.3hPa WSW 11.0mph /  17.7km/h 20.0mph /  32.2km/h 55% 0.00in /  0mm
00:44 38.8 °F /  3.8 °C 24.0 °F /  -4.4 °C 29.75in /  1007.3hPa SW 14.0mph /  22.5km/h 29.0mph /  46.7km/h 55% 0.00in /  0mm
00:49 38.6 °F /  3.7 °C 23.8 °F /  -4.6 °C 29.75in /  1007.3hPa SW 11.0mph /  17.7km/h 29.0mph /  46.7km/h 55% 0.00in /  0mm
00:54 38.5 °F /  3.6 °C 24.1 °F /  -4.4 °C 29.75in /  1007.3hPa SW 10.0mph /  16.1km/h 23.0mph /  37km/h 56% 0.00in /  0mm
00:59 38.4 °F /  3.6 °C 24.1 °F /  -4.4 °C 29.75in /  1007.3hPa SW 9.0mph /  14.5km/h 19.0mph /  30.6km/h 56% 0.00in /  0mm
01:04 38.4 °F /  3.6 °C 24.1 °F /  -4.4 °C 29.75in /  1007.3hPa SW 9.0mph /  14.5km/h 19.0mph /  30.6km/h 56% 0.00in /  0mm
01:09 38.3 °F /  3.5 °C 24.0 °F /  -4.4 °C 29.75in /  1007.3hPa SW 9.0mph /  14.5km/h 19.0mph /  30.6km/h 56% 0.00in /  0mm
01:14 38.3 °F /  3.5 °C 23.5 °F /  -4.7 °C 29.75in /  1007.3hPa SW 9.0mph /  14.5km/h 19.0mph /  30.6km/h 55% 0.00in /  0mm
01:19 38.2 °F /  3.4 °C 23.4 °F /  -4.8 °C 29.75in /  1007.3hPa SW 19.0mph /  30.6km/h 19.0mph /  30.6km/h 55% 0.00in /  0mm
01:24 38.4 °F /  3.6 °C 23.6 °F /  -4.7 °C 29.75in /  1007.3hPa WSW 11.0mph /  17.7km/h 25.0mph /  40.2km/h 55% 0.00in /  0mm
01:29 38.4 °F /  3.6 °C 23.6 °F /  -4.7 °C 29.75in /  1007.3hPa West 8.0mph /  12.9km/h 19.0mph /  30.6km/h 55% 0.00in /  0mm
01:34 38.5 °F /  3.6 °C 23.7 °F /  -4.6 °C 29.75in /  1007.3hPa WSW 12.0mph /  19.3km/h 22.0mph /  35.4km/h 55% 0.00in /  0mm
01:39 38.4 °F /  3.6 °C 23.6 °F /  -4.7 °C 29.75in /  1007.3hPa SW 9.0mph /  14.5km/h 22.0mph /  35.4km/h 55% 0.00in /  0mm
01:44 38.4 °F /  3.6 °C 23.6 °F /  -4.7 °C 29.75in /  1007.3hPa South 12.0mph /  19.3km/h 21.0mph /  33.8km/h 55% 0.00in /  0mm
01:49 38.4 °F /  3.6 °C 24.1 °F /  -4.4 °C 29.75in /  1007.3hPa WSW 11.0mph /  17.7km/h 22.0mph /  35.4km/h 56% 0.00in /  0mm
01:54 38.4 °F /  3.6 °C 24.1 °F /  -4.4 °C 29.75in /  1007.3hPa WSW 8.0mph /  12.9km/h 20.0mph /  32.2km/h 56% 0.00in /  0mm
01:59 38.3 °F /  3.5 °C 24.0 °F /  -4.4 °C 29.75in /  1007.3hPa SW 11.0mph /  17.7km/h 21.0mph /  33.8km/h 56% 0.00in /  0mm
02:04 38.2 °F /  3.4 °C 23.9 °F /  -4.5 °C 29.75in /  1007.3hPa SW 10.0mph /  16.1km/h 21.0mph /  33.8km/h 56% 0.00in /  0mm
02:09 38.2 °F /  3.4 °C 23.9 °F /  -4.5 °C 29.75in /  1007.3hPa SW 11.0mph /  17.7km/h 20.0mph /  32.2km/h 56% 0.00in /  0mm
02:14 38.1 °F /  3.4 °C 24.2 °F /  -4.3 °C 29.75in /  1007.3hPa SW 12.0mph /  19.3km/h 19.0mph /  30.6km/h 57% 0.00in /  0mm
02:19 38.0 °F /  3.3 °C 24.1 °F /  -4.4 °C 29.76in /  1007.7hPa SW 12.0mph /  19.3km/h 29.0mph /  46.7km/h 57% 0.00in /  0mm
02:24 38.1 °F /  3.4 °C 24.2 °F /  -4.3 °C 29.76in /  1007.7hPa West 15.0mph /  24.1km/h 23.0mph /  37km/h 57% 0.00in /  0mm
02:29 38.1 °F /  3.4 °C 24.2 °F /  -4.3 °C 29.76in /  1007.7hPa SSW 16.0mph /  25.7km/h 23.0mph /  37km/h 57% 0.00in /  0mm
02:34 38.2 °F /  3.4 °C 24.7 °F /  -4.1 °C 29.76in /  1007.7hPa SSW 6.0mph /  9.7km/h 24.0mph /  38.6km/h 58% 0.00in /  0mm
02:39 38.0 °F /  3.3 °C 24.5 °F /  -4.2 °C 29.76in /  1007.7hPa SW 12.0mph /  19.3km/h 23.0mph /  37km/h 58% 0.00in /  0mm
02:44 37.9 °F /  3.3 °C 24.8 °F /  -4 °C 29.76in /  1007.7hPa SW 20.0mph /  32.2km/h 20.0mph /  32.2km/h 59% 0.00in /  0mm
02:49 37.9 °F /  3.3 °C 24.4 °F /  -4.2 °C 29.75in /  1007.3hPa SW 22.0mph /  35.4km/h 25.0mph /  40.2km/h 58% 0.00in /  0mm
02:54 37.9 °F /  3.3 °C 24.8 °F /  -4 °C 29.75in /  1007.3hPa WSW 14.0mph /  22.5km/h 22.0mph /  35.4km/h 59% 0.00in /  0mm
02:59 37.9 °F /  3.3 °C 24.8 °F /  -4 °C 29.76in /  1007.7hPa WSW 22.0mph /  35.4km/h 25.0mph /  40.2km/h 59% 0.00in /  0mm
03:04 37.9 °F /  3.3 °C 24.8 °F /  -4 °C 29.76in /  1007.7hPa SW 14.0mph /  22.5km/h 25.0mph /  40.2km/h 59% 0.00in /  0mm
03:09 37.8 °F /  3.2 °C 24.7 °F /  -4.1 °C 29.76in /  1007.7hPa SW 13.0mph /  20.9km/h 24.0mph /  38.6km/h 59% 0.00in /  0mm
03:14 37.8 °F /  3.2 °C 24.7 °F /  -4.1 °C 29.76in /  1007.7hPa SW 13.0mph /  20.9km/h 25.0mph /  40.2km/h 59% 0.00in /  0mm
03:19 37.8 °F /  3.2 °C 25.1 °F /  -3.8 °C 29.76in /  1007.7hPa SW 13.0mph /  20.9km/h 25.0mph /  40.2km/h 60% 0.00in /  0mm
03:24 37.8 °F /  3.2 °C 25.1 °F /  -3.8 °C 29.76in /  1007.7hPa SW 13.0mph /  20.9km/h 23.0mph /  37km/h 60% 0.00in /  0mm
03:29 37.9 °F /  3.3 °C 24.8 °F /  -4 °C 29.76in /  1007.7hPa SW 18.0mph /  29km/h 26.0mph /  41.8km/h 59% 0.00in /  0mm
03:34 37.9 °F /  3.3 °C 25.2 °F /  -3.8 °C 29.76in /  1007.7hPa West 10.0mph /  16.1km/h 28.0mph /  45.1km/h 60% 0.00in /  0mm
03:39 37.7 °F /  3.2 °C 25.1 °F /  -3.8 °C 29.77in /  1008hPa South 13.0mph /  20.9km/h 24.0mph /  38.6km/h 60% 0.00in /  0mm
03:44 37.7 °F /  3.2 °C 25.1 °F /  -3.8 °C 29.76in /  1007.7hPa SW 7.0mph /  11.3km/h 27.0mph /  43.5km/h 60% 0.00in /  0mm
03:49 37.6 °F /  3.1 °C 25.0 °F /  -3.9 °C 29.76in /  1007.7hPa WSW 16.0mph /  25.7km/h 27.0mph /  43.5km/h 60% 0.00in /  0mm
03:54 37.7 °F /  3.2 °C 25.1 °F /  -3.8 °C 29.76in /  1007.7hPa WSW 7.0mph /  11.3km/h 25.0mph /  40.2km/h 60% 0.00in /  0mm
03:59 37.5 °F /  3.1 °C 25.3 °F /  -3.7 °C 29.76in /  1007.7hPa SW 12.0mph /  19.3km/h 24.0mph /  38.6km/h 61% 0.00in /  0mm
04:04 37.4 °F /  3 °C 25.2 °F /  -3.8 °C 29.77in /  1008hPa SW 10.0mph /  16.1km/h 26.0mph /  41.8km/h 61% 0.00in /  0mm
04:09 37.4 °F /  3 °C 25.2 °F /  -3.8 °C 29.76in /  1007.7hPa SSW 14.0mph /  22.5km/h 26.0mph /  41.8km/h 61% 0.00in /  0mm
04:14 37.4 °F /  3 °C 25.2 °F /  -3.8 °C 29.76in /  1007.7hPa SW 13.0mph /  20.9km/h 29.0mph /  46.7km/h 61% 0.00in /  0mm
04:19 37.4 °F /  3 °C 25.2 °F /  -3.8 °C 29.78in /  1008.4hPa WSW 13.0mph /  20.9km/h 29.0mph /  46.7km/h 61% 0.00in /  0mm
04:24 37.4 °F /  3 °C 25.2 °F /  -3.8 °C 29.78in /  1008.4hPa WSW 14.0mph /  22.5km/h 28.0mph /  45.1km/h 61% 0.00in /  0mm
04:29 37.4 °F /  3 °C 25.2 °F /  -3.8 °C 29.78in /  1008.4hPa WSW 14.0mph /  22.5km/h 24.0mph /  38.6km/h 61% 0.00in /  0mm
04:34 37.5 °F /  3.1 °C 25.3 °F /  -3.7 °C 29.78in /  1008.4hPa SW 15.0mph /  24.1km/h 34.0mph /  54.7km/h 61% 0.00in /  0mm
04:39 37.5 °F /  3.1 °C 25.3 °F /  -3.7 °C 29.78in /  1008.4hPa WSW 15.0mph /  24.1km/h 34.0mph /  54.7km/h 61% 0.00in /  0mm
04:44 37.4 °F /  3 °C 25.6 °F /  -3.6 °C 29.78in /  1008.4hPa WSW 14.0mph /  22.5km/h 29.0mph /  46.7km/h 62% 0.00in /  0mm
04:49 37.4 °F /  3 °C 25.6 °F /  -3.6 °C 29.79in /  1008.7hPa WSW 13.0mph /  20.9km/h 22.0mph /  35.4km/h 62% 0.00in /  0mm
04:54 37.3 °F /  2.9 °C 25.5 °F /  -3.6 °C 29.79in /  1008.7hPa SW 6.0mph /  9.7km/h 25.0mph /  40.2km/h 62% 0.00in /  0mm
04:59 37.3 °F /  2.9 °C 25.5 °F /  -3.6 °C 29.79in /  1008.7hPa SW 8.0mph /  12.9km/h 26.0mph /  41.8km/h 62% 0.00in /  0mm
05:04 37.2 °F /  2.9 °C 25.8 °F /  -3.4 °C 29.79in /  1008.7hPa SW 15.0mph /  24.1km/h 24.0mph /  38.6km/h 63% 0.00in /  0mm
05:09 37.3 °F /  2.9 °C 25.8 °F /  -3.4 °C 29.79in /  1008.7hPa West 14.0mph /  22.5km/h 30.0mph /  48.3km/h 63% 0.00in /  0mm
05:14 37.2 °F /  2.9 °C 25.8 °F /  -3.4 °C 29.80in /  1009hPa South 21.0mph /  33.8km/h 23.0mph /  37km/h 63% 0.00in /  0mm
05:19 37.3 °F /  2.9 °C 25.8 °F /  -3.4 °C 29.80in /  1009hPa WSW 15.0mph /  24.1km/h 27.0mph /  43.5km/h 63% 0.00in /  0mm
05:24 37.1 °F /  2.8 °C 26.0 °F /  -3.3 °C 29.80in /  1009hPa WSW 14.0mph /  22.5km/h 27.0mph /  43.5km/h 64% 0.00in /  0mm
05:29 37.1 °F /  2.8 °C 26.0 °F /  -3.3 °C 29.80in /  1009hPa WSW 14.0mph /  22.5km/h 25.0mph /  40.2km/h 64% 0.00in /  0mm
05:34 37.1 °F /  2.8 °C 26.0 °F /  -3.3 °C 29.81in /  1009.4hPa WSW 15.0mph /  24.1km/h 27.0mph /  43.5km/h 64% 0.00in /  0mm
05:39 37.1 °F /  2.8 °C 26.0 °F /  -3.3 °C 29.80in /  1009hPa WSW 13.0mph /  20.9km/h 24.0mph /  38.6km/h 64% 0.00in /  0mm
05:44 37.1 °F /  2.8 °C 26.0 °F /  -3.3 °C 29.81in /  1009.4hPa WSW 13.0mph /  20.9km/h 26.0mph /  41.8km/h 64% 0.00in /  0mm
05:49 37.1 °F /  2.8 °C 26.0 °F /  -3.3 °C 29.80in /  1009hPa WSW 24.0mph /  38.6km/h 28.0mph /  45.1km/h 64% 0.00in /  0mm
05:54 37.1 °F /  2.8 °C 26.4 °F /  -3.1 °C 29.81in /  1009.4hPa WSW 14.0mph /  22.5km/h 28.0mph /  45.1km/h 65% 0.00in /  0mm
05:59 37.3 °F /  2.9 °C 26.6 °F /  -3 °C 29.81in /  1009.4hPa WSW 15.0mph /  24.1km/h 29.0mph /  46.7km/h 65% 0.00in /  0mm
06:04 37.3 °F /  2.9 °C 26.6 °F /  -3 °C 29.81in /  1009.4hPa SW 10.0mph /  16.1km/h 29.0mph /  46.7km/h 65% 0.00in /  0mm
06:09 37.2 °F /  2.9 °C 26.5 °F /  -3.1 °C 29.82in /  1009.7hPa SW 12.0mph /  19.3km/h 24.0mph /  38.6km/h 65% 0.00in /  0mm
06:14 37.2 °F /  2.9 °C 26.5 °F /  -3.1 °C 29.82in /  1009.7hPa WSW 17.0mph /  27.4km/h 21.0mph /  33.8km/h 65% 0.00in /  0mm
06:19 37.2 °F /  2.9 °C 26.5 °F /  -3.1 °C 29.82in /  1009.7hPa WSW 10.0mph /  16.1km/h 23.0mph /  37km/h 65% 0.00in /  0mm
06:24 37.3 °F /  2.9 °C 26.6 °F /  -3 °C 29.81in /  1009.4hPa West 16.0mph /  25.7km/h 22.0mph /  35.4km/h 65% 0.00in /  0mm
06:29 37.3 °F /  2.9 °C 26.6 °F /  -3 °C 29.82in /  1009.7hPa WSW 14.0mph /  22.5km/h 26.0mph /  41.8km/h 65% 0.00in /  0mm
06:34 37.3 °F /  2.9 °C 26.6 °F /  -3 °C 29.82in /  1009.7hPa WSW 15.0mph /  24.1km/h 26.0mph /  41.8km/h 65% 0.00in /  0mm
06:39 37.3 °F /  2.9 °C 26.6 °F /  -3 °C 29.82in /  1009.7hPa WSW 14.0mph /  22.5km/h 28.0mph /  45.1km/h 65% 0.00in /  0mm
06:44 37.2 °F /  2.9 °C 26.9 °F /  -2.8 °C 29.82in /  1009.7hPa WSW 14.0mph /  22.5km/h 29.0mph /  46.7km/h 66% 0.00in /  0mm
06:49 37.1 °F /  2.8 °C 26.8 °F /  -2.9 °C 29.82in /  1009.7hPa WSW 14.0mph /  22.5km/h 29.0mph /  46.7km/h 66% 0.00in /  0mm
06:54 37.2 °F /  2.9 °C 26.9 °F /  -2.8 °C 29.82in /  1009.7hPa WSW 12.0mph /  19.3km/h 39.0mph /  62.8km/h 66% 0.00in /  0mm
06:59 37.2 °F /  2.9 °C 26.9 °F /  -2.8 °C 29.82in /  1009.7hPa WSW 15.0mph /  24.1km/h 39.0mph /  62.8km/h 66% 0.00in /  0mm
07:04 37.2 °F /  2.9 °C 26.9 °F /  -2.8 °C 29.82in /  1009.7hPa WSW 15.0mph /  24.1km/h 26.0mph /  41.8km/h 66% 0.00in /  0mm
07:09 37.1 °F /  2.8 °C 26.8 °F /  -2.9 °C 29.82in /  1009.7hPa WSW 15.0mph /  24.1km/h 27.0mph /  43.5km/h 66% 0.00in /  0mm
07:14 37.0 °F /  2.8 °C 26.7 °F /  -2.9 °C 29.82in /  1009.7hPa WSW 14.0mph /  22.5km/h 27.0mph /  43.5km/h 66% 0.00in /  0mm
07:19 36.9 °F /  2.7 °C 26.6 °F /  -3 °C 29.82in /  1009.7hPa SW 16.0mph /  25.7km/h 34.0mph /  54.7km/h 66% 0.00in /  0mm
07:24 37.0 °F /  2.8 °C 27.1 °F /  -2.7 °C 29.82in /  1009.7hPa SW 16.0mph /  25.7km/h 30.0mph /  48.3km/h 67% 0.00in /  0mm
07:29 36.9 °F /  2.7 °C 27.0 °F /  -2.8 °C 29.82in /  1009.7hPa WNW 9.0mph /  14.5km/h 23.0mph /  37km/h 67% 0.00in /  0mm
07:34 36.8 °F /  2.7 °C 26.9 °F /  -2.8 °C 29.83in /  1010hPa WSW 14.0mph /  22.5km/h 25.0mph /  40.2km/h 67% 0.00in /  0mm
07:39 36.8 °F /  2.7 °C 26.9 °F /  -2.8 °C 29.84in /  1010.4hPa WSW 14.0mph /  22.5km/h 25.0mph /  40.2km/h 67% 0.00in /  0mm
07:44 36.7 °F /  2.6 °C 26.8 °F /  -2.9 °C 29.84in /  1010.4hPa WSW 14.0mph /  22.5km/h 25.0mph /  40.2km/h 67% 0.00in /  0mm
07:49 36.7 °F /  2.6 °C 26.8 °F /  -2.9 °C 29.84in /  1010.4hPa SW 11.0mph /  17.7km/h 28.0mph /  45.1km/h 67% 0.00in /  0mm
07:54 36.6 °F /  2.6 °C 26.7 °F /  -2.9 °C 29.85in /  1010.7hPa West 6.0mph /  9.7km/h 20.0mph /  32.2km/h 67% 0.00in /  0mm
07:59 36.6 °F /  2.6 °C 26.7 °F /  -2.9 °C 29.85in /  1010.7hPa WSW 18.0mph /  29km/h 26.0mph /  41.8km/h 67% 0.00in /  0mm
08:04 36.6 °F /  2.6 °C 27.0 °F /  -2.8 °C 29.86in /  1011.1hPa WSW 11.0mph /  17.7km/h 23.0mph /  37km/h 68% 0.00in /  0mm
08:09 36.7 °F /  2.6 °C 27.1 °F /  -2.7 °C 29.86in /  1011.1hPa WSW 14.0mph /  22.5km/h 26.0mph /  41.8km/h 68% 0.00in /  0mm
08:14 36.7 °F /  2.6 °C 27.1 °F /  -2.7 °C 29.86in /  1011.1hPa WSW 13.0mph /  20.9km/h 26.0mph /  41.8km/h 68% 0.00in /  0mm
08:19 36.9 °F /  2.7 °C 27.0 °F /  -2.8 °C 29.86in /  1011.1hPa WSW 13.0mph /  20.9km/h 23.0mph /  37km/h 67% 0.00in /  0mm
08:24 36.9 °F /  2.7 °C 27.0 °F /  -2.8 °C 29.88in /  1011.7hPa WNW 10.0mph /  16.1km/h 21.0mph /  33.8km/h 67% 0.00in /  0mm
08:29 36.9 °F /  2.7 °C 27.0 °F /  -2.8 °C 29.87in /  1011.4hPa WSW 12.0mph /  19.3km/h 25.0mph /  40.2km/h 67% 0.00in /  0mm
08:34 36.9 °F /  2.7 °C 27.0 °F /  -2.8 °C 29.88in /  1011.7hPa WSW 18.0mph /  29km/h 18.0mph /  29km/h 67% 0.00in /  0mm
08:39 37.0 °F /  2.8 °C 27.1 °F /  -2.7 °C 29.88in /  1011.7hPa WSW 10.0mph /  16.1km/h 22.0mph /  35.4km/h 67% 0.00in /  0mm
08:49 36.9 °F /  2.7 °C 27.3 °F /  -2.6 °C 29.89in /  1012.1hPa WSW 11.0mph /  17.7km/h 21.0mph /  33.8km/h 68% 0.00in /  0mm
08:54 37.0 °F /  2.8 °C 27.4 °F /  -2.6 °C 29.89in /  1012.1hPa WSW 11.0mph /  17.7km/h 22.0mph /  35.4km/h 68% 0.00in /  0mm
08:59 37.0 °F /  2.8 °C 27.4 °F /  -2.6 °C 29.89in /  1012.1hPa WSW 12.0mph /  19.3km/h 23.0mph /  37km/h 68% 0.00in /  0mm
09:04 37.2 °F /  2.9 °C 27.6 °F /  -2.4 °C 29.90in /  1012.4hPa WSW 16.0mph /  25.7km/h 22.0mph /  35.4km/h 68% 0.00in /  0mm
09:09 37.2 °F /  2.9 °C 27.6 °F /  -2.4 °C 29.89in /  1012.1hPa WSW 13.0mph /  20.9km/h 22.0mph /  35.4km/h 68% 0.00in /  0mm
09:14 37.3 °F /  2.9 °C 27.7 °F /  -2.4 °C 29.90in /  1012.4hPa WSW 14.0mph /  22.5km/h 18.0mph /  29km/h 68% 0.00in /  0mm
09:19 37.4 °F /  3 °C 27.4 °F /  -2.6 °C 29.90in /  1012.4hPa WSW 11.0mph /  17.7km/h 18.0mph /  29km/h 67% 0.00in /  0mm
09:24 37.5 °F /  3.1 °C 27.5 °F /  -2.5 °C 29.90in /  1012.4hPa WSW 11.0mph /  17.7km/h 24.0mph /  38.6km/h 67% 0.00in /  0mm
09:29 37.5 °F /  3.1 °C 27.9 °F /  -2.3 °C 29.90in /  1012.4hPa WSW 21.0mph /  33.8km/h 22.0mph /  35.4km/h 68% 0.01in /  0.25mm
09:34 37.7 °F /  3.2 °C 28.1 °F /  -2.2 °C 29.90in /  1012.4hPa West 10.0mph /  16.1km/h 21.0mph /  33.8km/h 68% 0.01in /  0.25mm
09:39 37.6 °F /  3.1 °C 27.6 °F /  -2.4 °C 29.90in /  1012.4hPa WSW 16.0mph /  25.7km/h 23.0mph /  37km/h 67% 0.01in /  0.25mm
09:44 37.5 °F /  3.1 °C 27.9 °F /  -2.3 °C 29.91in /  1012.8hPa WSW 7.0mph /  11.3km/h 21.0mph /  33.8km/h 68% 0.01in /  0.25mm
09:49 37.5 °F /  3.1 °C 27.9 °F /  -2.3 °C 29.90in /  1012.4hPa WSW 9.0mph /  14.5km/h 21.0mph /  33.8km/h 68% 0.01in /  0.25mm
09:54 37.5 °F /  3.1 °C 27.9 °F /  -2.3 °C 29.91in /  1012.8hPa WSW 9.0mph /  14.5km/h 18.0mph /  29km/h 68% 0.01in /  0.25mm
09:59 37.5 °F /  3.1 °C 27.9 °F /  -2.3 °C 29.92in /  1013.1hPa WSW 9.0mph /  14.5km/h 19.0mph /  30.6km/h 68% 0.01in /  0.25mm
10:04 37.4 °F /  3 °C 27.8 °F /  -2.3 °C 29.92in /  1013.1hPa WSW 10.0mph /  16.1km/h 19.0mph /  30.6km/h 68% 0.01in /  0.25mm
10:09 37.5 °F /  3.1 °C 27.9 °F /  -2.3 °C 29.92in /  1013.1hPa WSW 12.0mph /  19.3km/h 17.0mph /  27.4km/h 68% 0.01in /  0.25mm
10:14 37.6 °F /  3.1 °C 28.0 °F /  -2.2 °C 29.92in /  1013.1hPa West 15.0mph /  24.1km/h 15.0mph /  24.1km/h 68% 0.01in /  0.25mm
10:19 37.5 °F /  3.1 °C 27.9 °F /  -2.3 °C 29.92in /  1013.1hPa WNW 10.0mph /  16.1km/h 19.0mph /  30.6km/h 68% 0.02in /  0.51mm
10:24 37.6 °F /  3.1 °C 28.0 °F /  -2.2 °C 29.92in /  1013.1hPa WSW 11.0mph /  17.7km/h 23.0mph /  37km/h 68% 0.02in /  0.51mm
10:29 37.4 °F /  3 °C 28.2 °F /  -2.1 °C 29.92in /  1013.1hPa WSW 11.0mph /  17.7km/h 23.0mph /  37km/h 69% 0.01in /  0.25mm
10:34 37.3 °F /  2.9 °C 28.1 °F /  -2.2 °C 29.92in /  1013.1hPa WSW 15.0mph /  24.1km/h 21.0mph /  33.8km/h 69% 0.01in /  0.25mm
10:39 37.3 °F /  2.9 °C 28.1 °F /  -2.2 °C 29.92in /  1013.1hPa SW 10.0mph /  16.1km/h 26.0mph /  41.8km/h 69% 0.01in /  0.25mm
10:44 37.4 °F /  3 °C 28.2 °F /  -2.1 °C 29.92in /  1013.1hPa SSW 16.0mph /  25.7km/h 20.0mph /  32.2km/h 69% 0.02in /  0.51mm
10:49 37.3 °F /  2.9 °C 28.1 °F /  -2.2 °C 29.92in /  1013.1hPa West 11.0mph /  17.7km/h 21.0mph /  33.8km/h 69% 0.02in /  0.51mm
10:54 37.2 °F /  2.9 °C 28.0 °F /  -2.2 °C 29.93in /  1013.4hPa WSW 11.0mph /  17.7km/h 24.0mph /  38.6km/h 69% 0.02in /  0.51mm
10:59 37.3 °F /  2.9 °C 28.1 °F /  -2.2 °C 29.93in /  1013.4hPa WSW 11.0mph /  17.7km/h 24.0mph /  38.6km/h 69% 0.02in /  0.51mm
11:04 37.4 °F /  3 °C 28.2 °F /  -2.1 °C 29.93in /  1013.4hPa WSW 11.0mph /  17.7km/h 22.0mph /  35.4km/h 69% 0.02in /  0.51mm
11:09 37.5 °F /  3.1 °C 28.2 °F /  -2.1 °C 29.93in /  1013.4hPa WSW 11.0mph /  17.7km/h 22.0mph /  35.4km/h 69% 0.02in /  0.51mm
11:14 37.6 °F /  3.1 °C 28.3 °F /  -2.1 °C 29.93in /  1013.4hPa West 6.0mph /  9.7km/h 18.0mph /  29km/h 69% 0.02in /  0.51mm
11:19 37.8 °F /  3.2 °C 28.2 °F /  -2.1 °C 29.93in /  1013.4hPa SW 13.0mph /  20.9km/h 22.0mph /  35.4km/h 68% 0.02in /  0.51mm
11:24 37.9 °F /  3.3 °C 28.3 °F /  -2.1 °C 29.94in /  1013.8hPa WSW 11.0mph /  17.7km/h 22.0mph /  35.4km/h 68% 0.02in /  0.51mm
11:29 38.1 °F /  3.4 °C 28.5 °F /  -1.9 °C 29.94in /  1013.8hPa WSW 11.0mph /  17.7km/h 20.0mph /  32.2km/h 68% 0.02in /  0.51mm
11:34 38.2 °F /  3.4 °C 28.6 °F /  -1.9 °C 29.93in /  1013.4hPa WSW 11.0mph /  17.7km/h 25.0mph /  40.2km/h 68% 0.02in /  0.51mm
11:39 38.2 °F /  3.4 °C 28.6 °F /  -1.9 °C 29.93in /  1013.4hPa WSW 12.0mph /  19.3km/h 25.0mph /  40.2km/h 68% 0.02in /  0.51mm
11:44 38.1 °F /  3.4 °C 28.5 °F /  -1.9 °C 29.93in /  1013.4hPa WSW 13.0mph /  20.9km/h 23.0mph /  37km/h 68% 0.02in /  0.51mm
11:49 38.1 °F /  3.4 °C 28.5 °F /  -1.9 °C 29.93in /  1013.4hPa WSW 13.0mph /  20.9km/h 23.0mph /  37km/h 68% 0.02in /  0.51mm
11:54 38.2 °F /  3.4 °C 28.6 °F /  -1.9 °C 29.93in /  1013.4hPa West 7.0mph /  11.3km/h 24.0mph /  38.6km/h 68% 0.02in /  0.51mm
11:59 38.2 °F /  3.4 °C 28.6 °F /  -1.9 °C 29.93in /  1013.4hPa WSW 11.0mph /  17.7km/h 24.0mph /  38.6km/h 68% 0.03in /  0.76mm
12:04 38.3 °F /  3.5 °C 28.7 °F /  -1.8 °C 29.93in /  1013.4hPa West 10.0mph /  16.1km/h 22.0mph /  35.4km/h 68% 0.03in /  0.76mm
12:09 38.2 °F /  3.4 °C 28.6 °F /  -1.9 °C 29.93in /  1013.4hPa SW 17.0mph /  27.4km/h 23.0mph /  37km/h 68% 0.03in /  0.76mm
12:14 38.3 °F /  3.5 °C 28.7 °F /  -1.8 °C 29.93in /  1013.4hPa WSW 16.0mph /  25.7km/h 24.0mph /  38.6km/h 68% 0.04in /  1.02mm
12:19 38.4 °F /  3.6 °C 28.8 °F /  -1.8 °C 29.93in /  1013.4hPa SSW 10.0mph /  16.1km/h 23.0mph /  37km/h 68% 0.03in /  0.76mm
12:24 38.3 °F /  3.5 °C 28.3 °F /  -2.1 °C 29.93in /  1013.4hPa WSW 13.0mph /  20.9km/h 25.0mph /  40.2km/h 67% 0.03in /  0.76mm
12:29 38.4 °F /  3.6 °C 28.8 °F /  -1.8 °C 29.93in /  1013.4hPa WSW 9.0mph /  14.5km/h 22.0mph /  35.4km/h 68% 0.03in /  0.76mm
12:34 38.4 °F /  3.6 °C 28.8 °F /  -1.8 °C 29.93in /  1013.4hPa SW 13.0mph /  20.9km/h 22.0mph /  35.4km/h 68% 0.04in /  1.02mm
12:39 38.5 °F /  3.6 °C 28.9 °F /  -1.7 °C 29.94in /  1013.8hPa SW 12.0mph /  19.3km/h 22.0mph /  35.4km/h 68% 0.04in /  1.02mm
12:44 38.5 °F /  3.6 °C 28.5 °F /  -1.9 °C 29.93in /  1013.4hPa WSW 12.0mph /  19.3km/h 24.0mph /  38.6km/h 67% 0.03in /  0.76mm
12:49 38.5 °F /  3.6 °C 28.9 °F /  -1.7 °C 29.93in /  1013.4hPa WSW 13.0mph /  20.9km/h 24.0mph /  38.6km/h 68% 0.03in /  0.76mm
12:54 38.4 °F /  3.6 °C 28.8 °F /  -1.8 °C 29.93in /  1013.4hPa WSW 14.0mph /  22.5km/h 26.0mph /  41.8km/h 68% 0.03in /  0.76mm
12:59 38.4 °F /  3.6 °C 28.8 °F /  -1.8 °C 29.93in /  1013.4hPa WSW 14.0mph /  22.5km/h 26.0mph /  41.8km/h 68% 0.03in /  0.76mm
13:04 38.3 °F /  3.5 °C 28.7 °F /  -1.8 °C 29.93in /  1013.4hPa WSW 7.0mph /  11.3km/h 28.0mph /  45.1km/h 68% 0.03in /  0.76mm
13:09 38.3 °F /  3.5 °C 28.7 °F /  -1.8 °C 29.93in /  1013.4hPa West 15.0mph /  24.1km/h 20.0mph /  32.2km/h 68% 0.03in /  0.76mm
13:14 38.4 °F /  3.6 °C 29.1 °F /  -1.6 °C 29.93in /  1013.4hPa SW 12.0mph /  19.3km/h 22.0mph /  35.4km/h 69% 0.02in /  0.51mm
13:19 38.4 °F /  3.6 °C 28.8 °F /  -1.8 °C 29.93in /  1013.4hPa NW 7.0mph /  11.3km/h 22.0mph /  35.4km/h 68% 0.02in /  0.51mm
13:24 38.3 °F /  3.5 °C 29.0 °F /  -1.7 °C 29.93in /  1013.4hPa SW 17.0mph /  27.4km/h 21.0mph /  33.8km/h 69% 0.02in /  0.51mm
13:29 38.2 °F /  3.4 °C 28.9 °F /  -1.7 °C 29.93in /  1013.4hPa SE 15.0mph /  24.1km/h 27.0mph /  43.5km/h 69% 0.02in /  0.51mm
13:34 38.4 °F /  3.6 °C 28.8 °F /  -1.8 °C 29.93in /  1013.4hPa WSW 9.0mph /  14.5km/h 21.0mph /  33.8km/h 68% 0.01in /  0.25mm
13:39 38.5 °F /  3.6 °C 28.9 °F /  -1.7 °C 29.93in /  1013.4hPa WSW 10.0mph /  16.1km/h 21.0mph /  33.8km/h 68% 0.01in /  0.25mm
13:44 38.3 °F /  3.5 °C 29.0 °F /  -1.7 °C 29.92in /  1013.1hPa WSW 10.0mph /  16.1km/h 22.0mph /  35.4km/h 69% 0.01in /  0.25mm
13:49 38.1 °F /  3.4 °C 28.8 °F /  -1.8 °C 29.93in /  1013.4hPa WSW 12.0mph /  19.3km/h 27.0mph /  43.5km/h 69% 0.02in /  0.51mm
13:54 38.1 °F /  3.4 °C 28.8 °F /  -1.8 °C 29.93in /  1013.4hPa WSW 13.0mph /  20.9km/h 27.0mph /  43.5km/h 69% 0.02in /  0.51mm
13:59 37.9 °F /  3.3 °C 28.6 °F /  -1.9 °C 29.93in /  1013.4hPa WSW 12.0mph /  19.3km/h 25.0mph /  40.2km/h 69% 0.01in /  0.25mm
14:04 38.1 °F /  3.4 °C 28.8 °F /  -1.8 °C 29.93in /  1013.4hPa WNW 5.0mph /  8km/h 17.0mph /  27.4km/h 69% 0.01in /  0.25mm
14:09 38.0 °F /  3.3 °C 28.7 °F /  -1.8 °C 29.93in /  1013.4hPa SW 16.0mph /  25.7km/h 18.0mph /  29km/h 69% 0.01in /  0.25mm
14:14 37.9 °F /  3.3 °C 28.6 °F /  -1.9 °C 29.93in /  1013.4hPa WSW 12.0mph /  19.3km/h 24.0mph /  38.6km/h 69% 0.01in /  0.25mm
14:19 37.8 °F /  3.2 °C 28.9 °F /  -1.7 °C 29.93in /  1013.4hPa WNW 16.0mph /  25.7km/h 24.0mph /  38.6km/h 70% 0.01in /  0.25mm
14:24 37.6 °F /  3.1 °C 28.7 °F /  -1.8 °C 29.93in /  1013.4hPa SW 11.0mph /  17.7km/h 23.0mph /  37km/h 70% 0.01in /  0.25mm
14:29 37.7 °F /  3.2 °C 28.8 °F /  -1.8 °C 29.93in /  1013.4hPa SW 14.0mph /  22.5km/h 19.0mph /  30.6km/h 70% 0.01in /  0.25mm
14:34 37.7 °F /  3.2 °C 28.8 °F /  -1.8 °C 29.94in /  1013.8hPa WSW 18.0mph /  29km/h 20.0mph /  32.2km/h 70% 0.01in /  0.25mm
14:39 37.5 °F /  3.1 °C 28.9 °F /  -1.7 °C 29.93in /  1013.4hPa SW 7.0mph /  11.3km/h 21.0mph /  33.8km/h 71% 0.01in /  0.25mm
14:44 37.4 °F /  3 °C 28.9 °F /  -1.7 °C 29.94in /  1013.8hPa WSW 11.0mph /  17.7km/h 21.0mph /  33.8km/h 71% 0.01in /  0.25mm
14:49 37.3 °F /  2.9 °C 28.8 °F /  -1.8 °C 29.93in /  1013.4hPa WSW 11.0mph /  17.7km/h 22.0mph /  35.4km/h 71% 0.00in /  0mm
14:54 37.1 °F /  2.8 °C 28.9 °F /  -1.7 °C 29.94in /  1013.8hPa WSW 11.0mph /  17.7km/h 22.0mph /  35.4km/h 72% 0.00in /  0mm
14:59 37.1 °F /  2.8 °C 28.9 °F /  -1.7 °C 29.94in /  1013.8hPa WSW 11.0mph /  17.7km/h 21.0mph /  33.8km/h 72% 0.00in /  0mm
15:04 36.9 °F /  2.7 °C 28.7 °F /  -1.8 °C 29.94in /  1013.8hPa WSW 11.0mph /  17.7km/h 21.0mph /  33.8km/h 72% 0.00in /  0mm
15:09 36.8 °F /  2.7 °C 28.6 °F /  -1.9 °C 29.94in /  1013.8hPa SSW 13.0mph /  20.9km/h 19.0mph /  30.6km/h 72% 0.00in /  0mm
15:14 36.8 °F /  2.7 °C 29.0 °F /  -1.7 °C 29.94in /  1013.8hPa WSW 11.0mph /  17.7km/h 19.0mph /  30.6km/h 73% 0.00in /  0mm
15:19 36.7 °F /  2.6 °C 28.9 °F /  -1.7 °C 29.94in /  1013.8hPa WSW 11.0mph /  17.7km/h 22.0mph /  35.4km/h 73% 0.00in /  0mm
15:24 36.8 °F /  2.7 °C 29.0 °F /  -1.7 °C 29.94in /  1013.8hPa SW 11.0mph /  17.7km/h 19.0mph /  30.6km/h 73% 0.00in /  0mm
15:29 36.7 °F /  2.6 °C 28.9 °F /  -1.7 °C 29.94in /  1013.8hPa West 17.0mph /  27.4km/h 20.0mph /  32.2km/h 73% 0.00in /  0mm
15:34 36.7 °F /  2.6 °C 28.9 °F /  -1.7 °C 29.95in /  1014.1hPa SW 13.0mph /  20.9km/h 21.0mph /  33.8km/h 73% 0.00in /  0mm
15:39 36.6 °F /  2.6 °C 28.8 °F /  -1.8 °C 29.95in /  1014.1hPa West 11.0mph /  17.7km/h 21.0mph /  33.8km/h 73% 0.00in /  0mm
15:44 36.5 °F /  2.5 °C 28.7 °F /  -1.8 °C 29.95in /  1014.1hPa West 11.0mph /  17.7km/h 22.0mph /  35.4km/h 73% 0.00in /  0mm
15:49 36.4 °F /  2.4 °C 28.6 °F /  -1.9 °C 29.96in /  1014.4hPa WSW 10.0mph /  16.1km/h 22.0mph /  35.4km/h 73% 0.00in /  0mm
15:54 36.2 °F /  2.3 °C 28.7 °F /  -1.8 °C 29.96in /  1014.4hPa WSW 9.0mph /  14.5km/h 19.0mph /  30.6km/h 74% 0.00in /  0mm
15:59 36.1 °F /  2.3 °C 28.6 °F /  -1.9 °C 29.97in /  1014.8hPa WSW 9.0mph /  14.5km/h 20.0mph /  32.2km/h 74% 0.00in /  0mm
16:04 36.0 °F /  2.2 °C 28.5 °F /  -1.9 °C 29.97in /  1014.8hPa WSW 9.0mph /  14.5km/h 20.0mph /  32.2km/h 74% 0.00in /  0mm
16:09 35.9 °F /  2.2 °C 28.7 °F /  -1.8 °C 29.98in /  1015.1hPa WSW 9.0mph /  14.5km/h 13.0mph /  20.9km/h 75% 0.00in /  0mm
16:14 35.9 °F /  2.2 °C 28.7 °F /  -1.8 °C 29.98in /  1015.1hPa SW 7.0mph /  11.3km/h 15.0mph /  24.1km/h 75% 0.00in /  0mm
16:19 35.7 °F /  2.1 °C 28.6 °F /  -1.9 °C 29.98in /  1015.1hPa South 7.0mph /  11.3km/h 12.0mph /  19.3km/h 75% 0.00in /  0mm
16:24 35.5 °F /  1.9 °C 28.7 °F /  -1.8 °C 29.98in /  1015.1hPa SW 7.0mph /  11.3km/h 12.0mph /  19.3km/h 76% 0.00in /  0mm
16:29 35.3 °F /  1.8 °C 28.5 °F /  -1.9 °C 29.98in /  1015.1hPa SW 7.0mph /  11.3km/h 12.0mph /  19.3km/h 76% 0.00in /  0mm
16:34 35.2 °F /  1.8 °C 28.4 °F /  -2 °C 29.98in /  1015.1hPa SW 7.0mph /  11.3km/h 12.0mph /  19.3km/h 76% 0.00in /  0mm
16:39 35.0 °F /  1.7 °C 28.5 °F /  -1.9 °C 29.99in /  1015.5hPa SW 6.0mph /  9.7km/h 14.0mph /  22.5km/h 77% 0.00in /  0mm
16:44 34.7 °F /  1.5 °C 28.2 °F /  -2.1 °C 30.00in /  1015.8hPa SW 5.0mph /  8km/h 15.0mph /  24.1km/h 77% 0.00in /  0mm
16:49 34.6 °F /  1.4 °C 28.1 °F /  -2.2 °C 29.99in /  1015.5hPa WSW 6.0mph /  9.7km/h 12.0mph /  19.3km/h 77% 0.00in /  0mm
16:54 34.4 °F /  1.3 °C 28.2 °F /  -2.1 °C 30.00in /  1015.8hPa SW 7.0mph /  11.3km/h 12.0mph /  19.3km/h 78% 0.00in /  0mm
16:59 34.3 °F /  1.3 °C 28.2 °F /  -2.1 °C 30.00in /  1015.8hPa SSW 5.0mph /  8km/h 17.0mph /  27.4km/h 78% 0.00in /  0mm
17:04 34.1 °F /  1.2 °C 28.3 °F /  -2.1 °C 30.00in /  1015.8hPa SW 6.0mph /  9.7km/h 13.0mph /  20.9km/h 79% 0.00in /  0mm
17:09 34.0 °F /  1.1 °C 28.2 °F /  -2.1 °C 30.00in /  1015.8hPa SW 6.0mph /  9.7km/h 13.0mph /  20.9km/h 79% 0.00in /  0mm
17:14 33.8 °F /  1 °C 28.0 °F /  -2.2 °C 30.00in /  1015.8hPa SW 7.0mph /  11.3km/h 13.0mph /  20.9km/h 79% 0.00in /  0mm
17:19 33.7 °F /  0.9 °C 28.2 °F /  -2.1 °C 30.01in /  1016.1hPa SW 7.0mph /  11.3km/h 12.0mph /  19.3km/h 80% 0.00in /  0mm
17:24 33.7 °F /  0.9 °C 28.2 °F /  -2.1 °C 30.01in /  1016.1hPa SW 7.0mph /  11.3km/h 16.0mph /  25.7km/h 80% 0.00in /  0mm
17:29 33.6 °F /  0.9 °C 28.1 °F /  -2.2 °C 30.01in /  1016.1hPa SW 7.0mph /  11.3km/h 16.0mph /  25.7km/h 80% 0.00in /  0mm
17:34 33.5 °F /  0.8 °C 28.0 °F /  -2.2 °C 30.02in /  1016.5hPa SW 6.0mph /  9.7km/h 12.0mph /  19.3km/h 80% 0.00in /  0mm
17:39 33.5 °F /  0.8 °C 28.0 °F /  -2.2 °C 30.01in /  1016.1hPa SW 6.0mph /  9.7km/h 12.0mph /  19.3km/h 80% 0.00in /  0mm
17:44 33.4 °F /  0.8 °C 27.9 °F /  -2.3 °C 30.01in /  1016.1hPa SW 6.0mph /  9.7km/h 12.0mph /  19.3km/h 80% 0.00in /  0mm
17:49 33.3 °F /  0.7 °C 28.1 °F /  -2.2 °C 30.02in /  1016.5hPa SW 4.0mph /  6.4km/h 13.0mph /  20.9km/h 81% 0.00in /  0mm
17:54 33.2 °F /  0.7 °C 28.0 °F /  -2.2 °C 30.02in /  1016.5hPa SW 5.0mph /  8km/h 9.0mph /  14.5km/h 81% 0.00in /  0mm
17:59 33.2 °F /  0.7 °C 28.0 °F /  -2.2 °C 30.02in /  1016.5hPa SW 5.0mph /  8km/h 9.0mph /  14.5km/h 81% 0.00in /  0mm
18:04 33.2 °F /  0.7 °C 28.0 °F /  -2.2 °C 30.02in /  1016.5hPa SW 5.0mph /  8km/h 10.0mph /  16.1km/h 81% 0.00in /  0mm
18:09 33.1 °F /  0.6 °C 27.9 °F /  -2.3 °C 30.03in /  1016.8hPa SW 5.0mph /  8km/h 10.0mph /  16.1km/h 81% 0.00in /  0mm
18:14 33.0 °F /  0.6 °C 27.8 °F /  -2.3 °C 30.03in /  1016.8hPa WSW 7.0mph /  11.3km/h 10.0mph /  16.1km/h 81% 0.00in /  0mm
18:19 33.1 °F /  0.6 °C 27.9 °F /  -2.3 °C 30.03in /  1016.8hPa SW 5.0mph /  8km/h 12.0mph /  19.3km/h 81% 0.00in /  0mm
18:24 33.0 °F /  0.6 °C 27.8 °F /  -2.3 °C 30.03in /  1016.8hPa WSW 4.0mph /  6.4km/h 8.0mph /  12.9km/h 81% 0.00in /  0mm
18:29 32.9 °F /  0.5 °C 28.0 °F /  -2.2 °C 30.02in /  1016.5hPa SSW 7.0mph /  11.3km/h 9.0mph /  14.5km/h 82% 0.00in /  0mm
18:34 32.9 °F /  0.5 °C 27.7 °F /  -2.4 °C 30.03in /  1016.8hPa SW 5.0mph /  8km/h 10.0mph /  16.1km/h 81% 0.00in /  0mm
18:39 32.8 °F /  0.4 °C 27.9 °F /  -2.3 °C 30.03in /  1016.8hPa SW 5.0mph /  8km/h 10.0mph /  16.1km/h 82% 0.00in /  0mm
18:44 32.8 °F /  0.4 °C 27.9 °F /  -2.3 °C 30.03in /  1016.8hPa SW 5.0mph /  8km/h 9.0mph /  14.5km/h 82% 0.00in /  0mm
18:49 32.6 °F /  0.3 °C 27.7 °F /  -2.4 °C 30.03in /  1016.8hPa SW 4.0mph /  6.4km/h 9.0mph /  14.5km/h 82% 0.00in /  0mm
18:54 32.6 °F /  0.3 °C 27.7 °F /  -2.4 °C 30.03in /  1016.8hPa SW 5.0mph /  8km/h 13.0mph /  20.9km/h 82% 0.00in /  0mm
18:59 32.6 °F /  0.3 °C 27.7 °F /  -2.4 °C 30.03in /  1016.8hPa SW 5.0mph /  8km/h 13.0mph /  20.9km/h 82% 0.00in /  0mm
19:04 32.5 °F /  0.3 °C 27.6 °F /  -2.4 °C 30.03in /  1016.8hPa WSW 3.0mph /  4.8km/h 8.0mph /  12.9km/h 82% 0.00in /  0mm
19:09 32.6 °F /  0.3 °C 27.7 °F /  -2.4 °C 30.03in /  1016.8hPa SW 5.0mph /  8km/h 10.0mph /  16.1km/h 82% 0.00in /  0mm
19:14 32.8 °F /  0.4 °C 28.2 °F /  -2.1 °C 30.03in /  1016.8hPa SW 8.0mph /  12.9km/h 10.0mph /  16.1km/h 83% 0.00in /  0mm
19:19 32.8 °F /  0.4 °C 27.9 °F /  -2.3 °C 30.03in /  1016.8hPa SSW 4.0mph /  6.4km/h 9.0mph /  14.5km/h 82% 0.00in /  0mm
19:24 32.8 °F /  0.4 °C 27.9 °F /  -2.3 °C 30.03in /  1016.8hPa South 6.0mph /  9.7km/h 9.0mph /  14.5km/h 82% 0.00in /  0mm
19:29 32.8 °F /  0.4 °C 27.9 °F /  -2.3 °C 30.03in /  1016.8hPa SW 6.0mph /  9.7km/h 8.0mph /  12.9km/h 82% 0.00in /  0mm
19:34 32.8 °F /  0.4 °C 27.9 °F /  -2.3 °C 30.03in /  1016.8hPa SW 5.0mph /  8km/h 9.0mph /  14.5km/h 82% 0.00in /  0mm
19:39 32.9 °F /  0.5 °C 28.0 °F /  -2.2 °C 30.03in /  1016.8hPa SW 5.0mph /  8km/h 13.0mph /  20.9km/h 82% 0.00in /  0mm
19:44 32.9 °F /  0.5 °C 28.0 °F /  -2.2 °C 30.03in /  1016.8hPa SW 5.0mph /  8km/h 13.0mph /  20.9km/h 82% 0.00in /  0mm
19:49 32.8 °F /  0.4 °C 27.9 °F /  -2.3 °C 30.03in /  1016.8hPa SW 5.0mph /  8km/h 9.0mph /  14.5km/h 82% 0.00in /  0mm
19:54 32.8 °F /  0.4 °C 27.9 °F /  -2.3 °C 30.03in /  1016.8hPa SW 5.0mph /  8km/h 10.0mph /  16.1km/h 82% 0.00in /  0mm
19:59 32.9 °F /  0.5 °C 28.0 °F /  -2.2 °C 30.04in /  1017.2hPa SW 5.0mph /  8km/h 10.0mph /  16.1km/h 82% 0.00in /  0mm
20:04 32.9 °F /  0.5 °C 28.0 °F /  -2.2 °C 30.04in /  1017.2hPa WSW 5.0mph /  8km/h 10.0mph /  16.1km/h 82% 0.00in /  0mm
20:09 33.0 °F /  0.6 °C 28.1 °F /  -2.2 °C 30.04in /  1017.2hPa WSW 3.0mph /  4.8km/h 10.0mph /  16.1km/h 82% 0.00in /  0mm
20:14 33.0 °F /  0.6 °C 28.1 °F /  -2.2 °C 30.04in /  1017.2hPa SW 6.0mph /  9.7km/h 10.0mph /  16.1km/h 82% 0.00in /  0mm
20:19 33.0 °F /  0.6 °C 28.1 °F /  -2.2 °C 30.05in /  1017.5hPa SW 10.0mph /  16.1km/h 10.0mph /  16.1km/h 82% 0.00in /  0mm
20:24 33.0 °F /  0.6 °C 28.1 °F /  -2.2 °C 30.05in /  1017.5hPa WSW 6.0mph /  9.7km/h 10.0mph /  16.1km/h 82% 0.00in /  0mm
20:29 33.0 °F /  0.6 °C 28.1 °F /  -2.2 °C 30.05in /  1017.5hPa West 5.0mph /  8km/h 9.0mph /  14.5km/h 82% 0.00in /  0mm
20:34 32.9 °F /  0.5 °C 28.0 °F /  -2.2 °C 30.05in /  1017.5hPa SW 7.0mph /  11.3km/h 9.0mph /  14.5km/h 82% 0.00in /  0mm
20:39 32.9 °F /  0.5 °C 28.0 °F /  -2.2 °C 30.05in /  1017.5hPa SW 6.0mph /  9.7km/h 8.0mph /  12.9km/h 82% 0.00in /  0mm
20:44 32.8 °F /  0.4 °C 27.9 °F /  -2.3 °C 30.05in /  1017.5hPa SW 4.0mph /  6.4km/h 9.0mph /  14.5km/h 82% 0.00in /  0mm
20:49 32.8 °F /  0.4 °C 27.9 °F /  -2.3 °C 30.05in /  1017.5hPa SW 4.0mph /  6.4km/h 9.0mph /  14.5km/h 82% 0.00in /  0mm
20:54 32.8 °F /  0.4 °C 27.9 °F /  -2.3 °C 30.05in /  1017.5hPa WSW 4.0mph /  6.4km/h 9.0mph /  14.5km/h 82% 0.00in /  0mm
20:59 32.8 °F /  0.4 °C 27.9 °F /  -2.3 °C 30.05in /  1017.5hPa SW 5.0mph /  8km/h 9.0mph /  14.5km/h 82% 0.00in /  0mm
21:04 32.8 °F /  0.4 °C 27.9 °F /  -2.3 °C 30.06in /  1017.8hPa SW 4.0mph /  6.4km/h 9.0mph /  14.5km/h 82% 0.00in /  0mm
21:09 32.8 °F /  0.4 °C 27.9 °F /  -2.3 °C 30.06in /  1017.8hPa SW 4.0mph /  6.4km/h 8.0mph /  12.9km/h 82% 0.00in /  0mm
21:14 32.7 °F /  0.4 °C 27.8 °F /  -2.3 °C 30.06in /  1017.8hPa SW 4.0mph /  6.4km/h 8.0mph /  12.9km/h 82% 0.00in /  0mm
21:19 32.7 °F /  0.4 °C 27.8 °F /  -2.3 °C 30.06in /  1017.8hPa SW 3.0mph /  4.8km/h 7.0mph /  11.3km/h 82% 0.00in /  0mm
21:24 32.7 °F /  0.4 °C 27.8 °F /  -2.3 °C 30.06in /  1017.8hPa SW 1.0mph /  1.6km/h 9.0mph /  14.5km/h 82% 0.00in /  0mm
21:29 32.6 °F /  0.3 °C 27.7 °F /  -2.4 °C 30.06in /  1017.8hPa SW 3.0mph /  4.8km/h 7.0mph /  11.3km/h 82% 0.00in /  0mm
21:34 32.5 °F /  0.3 °C 27.6 °F /  -2.4 °C 30.06in /  1017.8hPa SW 5.0mph /  8km/h 7.0mph /  11.3km/h 82% 0.00in /  0mm
21:39 32.5 °F /  0.3 °C 27.6 °F /  -2.4 °C 30.07in /  1018.2hPa SW 4.0mph /  6.4km/h 7.0mph /  11.3km/h 82% 0.00in /  0mm
21:44 32.5 °F /  0.3 °C 27.6 °F /  -2.4 °C 30.07in /  1018.2hPa WSW 4.0mph /  6.4km/h 7.0mph /  11.3km/h 82% 0.00in /  0mm
21:49 32.4 °F /  0.2 °C 27.5 °F /  -2.5 °C 30.06in /  1017.8hPa SW 5.0mph /  8km/h 7.0mph /  11.3km/h 82% 0.00in /  0mm
21:54 32.4 °F /  0.2 °C 27.5 °F /  -2.5 °C 30.06in /  1017.8hPa WSW 3.0mph /  4.8km/h 8.0mph /  12.9km/h 82% 0.00in /  0mm
21:59 32.4 °F /  0.2 °C 27.5 °F /  -2.5 °C 30.06in /  1017.8hPa SW 4.0mph /  6.4km/h 8.0mph /  12.9km/h 82% 0.00in /  0mm
22:04 32.4 °F /  0.2 °C 27.5 °F /  -2.5 °C 30.06in /  1017.8hPa SW 4.0mph /  6.4km/h 7.0mph /  11.3km/h 82% 0.00in /  0mm
22:09 32.4 °F /  0.2 °C 27.8 °F /  -2.3 °C 30.06in /  1017.8hPa SW 4.0mph /  6.4km/h 7.0mph /  11.3km/h 83% 0.00in /  0mm
22:14 32.4 °F /  0.2 °C 27.8 °F /  -2.3 °C 30.05in /  1017.5hPa SW 4.0mph /  6.4km/h 8.0mph /  12.9km/h 83% 0.00in /  0mm
22:19 32.3 °F /  0.2 °C 27.7 °F /  -2.4 °C 30.05in /  1017.5hPa SW 4.0mph /  6.4km/h 8.0mph /  12.9km/h 83% 0.00in /  0mm
22:24 32.4 °F /  0.2 °C 27.8 °F /  -2.3 °C 30.06in /  1017.8hPa SW 4.0mph /  6.4km/h 8.0mph /  12.9km/h 83% 0.00in /  0mm
22:29 32.3 °F /  0.2 °C 27.7 °F /  -2.4 °C 30.06in /  1017.8hPa SW 6.0mph /  9.7km/h 7.0mph /  11.3km/h 83% 0.00in /  0mm
22:34 32.3 °F /  0.2 °C 27.7 °F /  -2.4 °C 30.06in /  1017.8hPa SW 7.0mph /  11.3km/h 8.0mph /  12.9km/h 83% 0.00in /  0mm
22:39 32.4 °F /  0.2 °C 27.8 °F /  -2.3 °C 30.06in /  1017.8hPa SSW 6.0mph /  9.7km/h 8.0mph /  12.9km/h 83% 0.00in /  0mm
22:44 32.4 °F /  0.2 °C 27.8 °F /  -2.3 °C 30.06in /  1017.8hPa SSW 4.0mph /  6.4km/h 9.0mph /  14.5km/h 83% 0.00in /  0mm
22:49 32.4 °F /  0.2 °C 27.8 °F /  -2.3 °C 30.06in /  1017.8hPa SW 4.0mph /  6.4km/h 9.0mph /  14.5km/h 83% 0.00in /  0mm
22:54 32.4 °F /  0.2 °C 27.8 °F /  -2.3 °C 30.06in /  1017.8hPa SW 4.0mph /  6.4km/h 8.0mph /  12.9km/h 83% 0.00in /  0mm
22:59 32.3 °F /  0.2 °C 27.7 °F /  -2.4 °C 30.06in /  1017.8hPa SW 4.0mph /  6.4km/h 7.0mph /  11.3km/h 83% 0.00in /  0mm
23:04 32.2 °F /  0.1 °C 27.6 °F /  -2.4 °C 30.06in /  1017.8hPa SW 3.0mph /  4.8km/h 7.0mph /  11.3km/h 83% 0.00in /  0mm
23:09 32.2 °F /  0.1 °C 27.6 °F /  -2.4 °C 30.07in /  1018.2hPa SW 4.0mph /  6.4km/h 7.0mph /  11.3km/h 83% 0.00in /  0mm
23:14 32.2 °F /  0.1 °C 27.6 °F /  -2.4 °C 30.07in /  1018.2hPa SW 4.0mph /  6.4km/h 8.0mph /  12.9km/h 83% 0.00in /  0mm
23:19 32.3 °F /  0.2 °C 27.7 °F /  -2.4 °C 30.07in /  1018.2hPa SW 4.0mph /  6.4km/h 9.0mph /  14.5km/h 83% 0.00in /  0mm
23:24 32.3 °F /  0.2 °C 27.7 °F /  -2.4 °C 30.07in /  1018.2hPa SW 4.0mph /  6.4km/h 9.0mph /  14.5km/h 83% 0.00in /  0mm
23:29 32.3 °F /  0.2 °C 27.7 °F /  -2.4 °C 30.07in /  1018.2hPa SW 3.0mph /  4.8km/h 8.0mph /  12.9km/h 83% 0.00in /  0mm
23:34 32.4 °F /  0.2 °C 27.8 °F /  -2.3 °C 30.07in /  1018.2hPa SW 3.0mph /  4.8km/h 9.0mph /  14.5km/h 83% 0.00in /  0mm
23:39 32.4 °F /  0.2 °C 27.8 °F /  -2.3 °C 30.07in /  1018.2hPa SW 3.0mph /  4.8km/h 7.0mph /  11.3km/h 83% 0.00in /  0mm
23:44 32.5 °F /  0.3 °C 27.9 °F /  -2.3 °C 30.07in /  1018.2hPa SW 6.0mph /  9.7km/h 10.0mph /  16.1km/h 83% 0.00in /  0mm
23:49 32.6 °F /  0.3 °C 28.0 °F /  -2.2 °C 30.07in /  1018.2hPa WSW 3.0mph /  4.8km/h 7.0mph /  11.3km/h 83% 0.00in /  0mm
23:54 32.7 °F /  0.4 °C 28.1 °F /  -2.2 °C 30.07in /  1018.2hPa SW 4.0mph /  6.4km/h 9.0mph /  14.5km/h 83% 0.00in /  0mm
23:59 32.8 °F /  0.4 °C 28.2 °F /  -2.1 °C 30.07in /  1018.2hPa SW 7.0mph /  11.3km/h 8.0mph /  12.9km/h 83% 0.00in /  0mm
Buffalo, New York, USA
Compliments of Weather Underground - 2.5 mb